Pagina principale
METAR-TAF:

METAR-TAF

Aeroporti :

Aeroporto di Lugano-Agno

Lugano, Svizzera

latitudine: 46-00N, longitudine: 008-58E, altezza: 273 m

Osservazione

Il bollettino è stato emesso 36 minuti fa, alle 12:50 UTC
Vento 6 kt da sud
Temperature 33°C
Umidità 49%
Pressione 1019 hPa
Visibilità 10 km o più
Nubi sparse ad un'altezza di 5000 ft

METAR: LSZA 231250Z 19006KT 9999 SCT050 33/21 Q1019 NOSIG

Ora: 15:26 (13:26 UTC)

Previsione

Il bollettino è stato emesso 2 ore e 1 minuti fa, alle 11:25 UTC
Previsione valida dal 23 alle 12 UTC al 23 alle 21 UTC
Vento 5 kt da sud/sud-ovest
Visibilità 10 km o più
Poco nuvoloso ad un'altezza di 4500 ft

TAF: LSZA 231125Z 2312/2321 20005KT 9999 FEW045

Osservazioni e previsioni meteorologiche di più di 4000 aeroporti (messaggi METAR e TAF).

Le stazioni disponibili sono rappresentate dai dischi gialli e rossi sulla carta.

Puntare il mouse per vedere il nome della stazione.

Clicca sopra per visualizzare le osservazioni e previsioni meteorologiche.

Per cambiare la mappa : fare clic sui pulsanti verdi con una croce nera per ingrandire, il pulsante verde con un trattino per diminuire, o sulla freccia verde per le mappe adiacenti.


METAR-TAF: